Time;durP1;ratioP1;P1;durP2;ratioP2;P2;SDS_P1;SDS_P2;PMS_P1;PMS_P2;Temp;Humidity;BMP_temperature;BMP_pressure;BME280_temperature;BME280_humidity;BME280_pressure;Samples;Min_cycle;Max_cycle;Signal;HPM_P1;HPM_P2
2024/04/18 00:00:41;;;;;;;1999.90;999.90;;;11.30;99.90;;;;;;5311498;26;20046;-80
2024/04/18 00:03:07;;;;;;;1999.90;999.90;;;11.30;99.90;;;;;;5313029;26;20514;-79
2024/04/18 00:05:33;;;;;;;1999.90;999.90;;;11.30;99.90;;;;;;5311843;26;20033;-80
2024/04/18 00:07:59;;;;;;;1999.90;999.90;;;11.30;99.90;;;;;;5312798;27;20037;-80
2024/04/18 00:10:25;;;;;;;1999.90;999.90;;;11.40;99.90;;;;;;5312053;26;20112;-80
2024/04/18 00:12:51;;;;;;;1999.90;999.90;;;11.30;99.90;;;;;;5313856;26;20033;-80
2024/04/18 00:15:20;;;;;;;1999.90;999.90;;;11.30;99.90;;;;;;5311693;26;20495;-79
2024/04/18 00:17:46;;;;;;;1999.90;999.90;;;11.30;99.90;;;;;;5312482;26;20366;-80
2024/04/18 00:20:12;;;;;;;1999.90;999.90;;;11.40;99.90;;;;;;5311882;26;20037;-80
2024/04/18 00:22:38;;;;;;;1999.90;999.90;;;11.40;99.90;;;;;;5312626;27;20022;-80
2024/04/18 00:25:06;;;;;;;1999.90;999.90;;;11.40;99.90;;;;;;5313389;26;20021;-80
2024/04/18 00:27:32;;;;;;;1999.90;999.90;;;11.40;99.90;;;;;;5312288;26;20033;-80
2024/04/18 00:29:58;;;;;;;1999.90;999.90;;;11.40;99.90;;;;;;5313315;26;20026;-79
2024/04/18 00:32:24;;;;;;;1999.90;999.90;;;11.50;99.90;;;;;;5281019;26;20037;-80
2024/04/18 00:34:50;;;;;;;1999.90;999.90;;;11.50;99.90;;;;;;5312448;26;20399;-80
2024/04/18 00:37:16;;;;;;;1999.90;999.90;;;11.50;99.90;;;;;;5311837;26;20057;-79
2024/04/18 00:39:42;;;;;;;1999.90;999.90;;;11.40;99.90;;;;;;5312193;26;20021;-80
2024/04/18 00:42:08;;;;;;;1999.90;999.90;;;11.50;99.90;;;;;;5311897;26;20463;-80
2024/04/18 00:44:34;;;;;;;1999.90;999.90;;;11.40;99.90;;;;;;5312492;27;20029;-79
2024/04/18 00:47:01;;;;;;;1999.90;999.90;;;11.40;99.90;;;;;;5330769;26;20369;-79
2024/04/18 00:49:27;;;;;;;1999.90;999.90;;;11.40;99.90;;;;;;5346858;26;20029;-73
2024/04/18 00:51:53;;;;;;;1999.90;999.90;;;11.40;99.90;;;;;;5346155;26;20032;-73
2024/04/18 00:54:19;;;;;;;1999.90;999.90;;;11.40;99.90;;;;;;5346963;26;20482;-73
2024/04/18 00:56:45;;;;;;;1999.90;999.90;;;11.30;99.90;;;;;;5323282;26;20049;-73
2024/04/18 00:59:12;;;;;;;1999.90;999.90;;;11.30;99.90;;;;;;5310656;27;20026;-72
2024/04/18 01:01:38;;;;;;;1999.90;999.90;;;11.20;99.90;;;;;;5309411;26;20034;-72
2024/04/18 01:04:05;;;;;;;1999.90;999.90;;;11.20;99.90;;;;;;5282263;27;20037;-72
2024/04/18 01:06:31;;;;;;;1999.90;999.90;;;11.20;99.90;;;;;;5312071;26;20042;-73
2024/04/18 01:08:58;;;;;;;1999.90;999.90;;;11.20;99.90;;;;;;5312680;26;20372;-72
2024/04/18 01:11:24;;;;;;;1999.90;999.90;;;11.20;99.90;;;;;;5312017;26;20038;-73
2024/04/18 01:13:50;;;;;;;1999.90;999.90;;;11.20;99.90;;;;;;5313086;26;20038;-72
2024/04/18 01:16:16;;;;;;;1999.90;999.90;;;11.20;99.90;;;;;;5311804;26;20033;-72
2024/04/18 01:18:45;;;;;;;1999.90;999.90;;;11.10;99.90;;;;;;5312049;26;20025;-73
2024/04/18 01:21:11;;;;;;;1999.90;999.90;;;11.00;99.90;;;;;;5312054;26;20478;-72
2024/04/18 01:23:37;;;;;;;1999.90;999.90;;;11.00;99.90;;;;;;5311861;27;20030;-73
2024/04/18 01:26:04;;;;;;;1999.90;999.90;;;11.00;99.90;;;;;;5312188;26;20042;-71
2024/04/18 01:28:30;;;;;;;1999.90;999.90;;;11.00;99.90;;;;;;5312194;26;20046;-71
2024/04/18 01:30:56;;;;;;;1999.90;999.90;;;11.00;99.90;;;;;;5311536;26;20041;-71
2024/04/18 01:33:22;;;;;;;1999.90;999.90;;;10.90;99.90;;;;;;5311271;27;20025;-71
2024/04/18 01:35:48;;;;;;;1999.90;999.90;;;11.00;99.90;;;;;;5311387;26;20029;-71
2024/04/18 01:38:14;;;;;;;1999.90;999.90;;;11.00;99.90;;;;;;5311735;27;20021;-72
2024/04/18 01:40:40;;;;;;;1999.90;999.90;;;11.00;99.90;;;;;;5311756;26;20037;-72
2024/04/18 01:43:07;;;;;;;1999.90;999.90;;;10.90;99.90;;;;;;5312060;26;20378;-72
2024/04/18 01:45:33;;;;;;;1999.90;999.90;;;10.80;99.90;;;;;;5309482;26;20041;-73
2024/04/18 01:47:59;;;;;;;1999.90;999.90;;;10.80;99.90;;;;;;5344990;26;20032;-72
2024/04/18 01:50:25;;;;;;;1999.90;999.90;;;10.80;99.90;;;;;;5341706;26;20021;-79
2024/04/18 01:52:51;;;;;;;1999.90;999.90;;;10.80;99.90;;;;;;5309762;27;20030;-78
2024/04/18 01:55:17;;;;;;;1999.90;999.90;;;10.80;99.90;;;;;;5311282;26;20022;-79
2024/04/18 01:57:43;;;;;;;1999.90;999.90;;;10.80;99.90;;;;;;5311264;26;20030;-78
2024/04/18 02:00:10;;;;;;;1999.90;999.90;;;10.90;99.90;;;;;;5309276;26;20033;-79
2024/04/18 02:02:37;;;;;;;1999.90;999.90;;;10.90;99.90;;;;;;5312603;26;20037;-79
2024/04/18 02:05:03;;;;;;;1999.90;999.90;;;10.80;99.90;;;;;;5324539;26;20025;-79
2024/04/18 02:07:30;;;;;;;1999.90;999.90;;;10.80;99.90;;;;;;5323023;26;20042;-78
2024/04/18 02:09:56;;;;;;;1999.90;999.90;;;10.70;99.90;;;;;;5340113;26;20383;-78
2024/04/18 02:12:22;;;;;;;1999.90;999.90;;;10.50;99.90;;;;;;5307700;26;20038;-78
2024/04/18 02:14:48;;;;;;;1999.90;999.90;;;10.50;99.90;;;;;;5318517;26;20029;-78
2024/04/18 02:17:14;;;;;;;1999.90;999.90;;;10.50;99.90;;;;;;5312827;26;20034;-79
2024/04/18 02:19:40;;;;;;;1999.90;999.90;;;10.50;99.90;;;;;;5310416;26;20383;-79
2024/04/18 02:22:06;;;;;;;1999.90;999.90;;;10.50;99.90;;;;;;5310287;26;20041;-78
2024/04/18 02:25:02;;;;;;;1999.90;999.90;;;10.60;99.90;;;;;;5337299;26;20494;-79
2024/04/18 02:27:28;;;;;;;1999.90;999.90;;;10.60;99.90;;;;;;5311275;26;20511;-78
2024/04/18 02:29:54;;;;;;;1999.90;999.90;;;10.60;99.90;;;;;;5309978;26;20061;-78
2024/04/18 02:32:20;;;;;;;1999.90;999.90;;;10.50;99.90;;;;;;5309597;26;20374;-78
2024/04/18 02:34:46;;;;;;;1999.90;999.90;;;10.50;99.90;;;;;;5310193;26;20042;-79
2024/04/18 02:37:12;;;;;;;1999.90;999.90;;;10.50;99.90;;;;;;5337106;26;20029;-78
2024/04/18 02:39:39;;;;;;;1999.90;999.90;;;10.50;99.90;;;;;;5345110;26;20025;-78
2024/04/18 02:42:05;;;;;;;1999.90;999.90;;;10.30;99.90;;;;;;5344589;26;20053;-79
2024/04/18 02:44:32;;;;;;;1999.90;999.90;;;10.30;99.90;;;;;;5344388;26;20109;-79
2024/04/18 02:46:59;;;;;;;1999.90;999.90;;;10.30;99.90;;;;;;5336951;26;20049;-79
2024/04/18 02:49:25;;;;;;;1999.90;999.90;;;10.30;99.90;;;;;;5345710;26;20028;-79
2024/04/18 02:51:51;;;;;;;1999.90;999.90;;;10.20;99.90;;;;;;5344572;26;20377;-79
2024/04/18 02:54:17;;;;;;;1999.90;999.90;;;10.20;99.90;;;;;;5344822;26;20033;-78
2024/04/18 02:56:43;;;;;;;1999.90;999.90;;;10.20;99.90;;;;;;5324482;26;20042;-79
2024/04/18 02:59:10;;;;;;;1999.90;999.90;;;10.30;99.90;;;;;;5312879;26;20401;-72
2024/04/18 03:01:36;;;;;;;1999.90;999.90;;;10.30;99.90;;;;;;5313275;26;20037;-71
2024/04/18 03:04:02;;;;;;;1999.90;999.90;;;10.20;99.90;;;;;;5314566;26;20371;-72
2024/04/18 03:06:29;;;;;;;1999.90;999.90;;;10.30;99.90;;;;;;5311290;26;20498;-72
2024/04/18 03:08:55;;;;;;;1999.90;999.90;;;10.30;99.90;;;;;;5313776;27;20034;-72
2024/04/18 03:11:21;;;;;;;1999.90;999.90;;;10.30;99.90;;;;;;5313043;26;20379;-71
2024/04/18 03:13:47;;;;;;;106.90;101.50;;;10.30;99.90;;;;;;5313358;27;20034;-72
2024/04/18 03:16:14;;;;;;;51.00;48.45;;;10.20;99.90;;;;;;5313341;26;20038;-72
2024/04/18 03:18:42;;;;;;;106.10;100.80;;;10.20;99.90;;;;;;5313945;26;20045;-72
2024/04/18 03:21:08;;;;;;;126.60;120.40;;;10.20;99.90;;;;;;5313472;26;20033;-71
2024/04/18 03:23:34;;;;;;;40.20;38.28;;;10.20;99.90;;;;;;5313560;27;20507;-71
2024/04/18 03:26:00;;;;;;;70.70;67.25;;;10.20;99.90;;;;;;5311759;26;20122;-72
2024/04/18 03:28:26;;;;;;;53.63;51.05;;;10.20;99.90;;;;;;5313288;26;20466;-71
2024/04/18 03:30:52;;;;;;;59.40;56.50;;;10.10;99.90;;;;;;5312820;26;20037;-71
2024/04/18 03:33:18;;;;;;;73.55;69.97;;;10.10;99.90;;;;;;5313857;26;20060;-71
2024/04/18 03:35:45;;;;;;;82.03;78.05;;;10.10;99.90;;;;;;5313361;26;20042;-71
2024/04/18 03:38:11;;;;;;;85.70;81.50;;;10.10;99.90;;;;;;5313771;26;20026;-72
2024/04/18 03:40:38;;;;;;;70.57;67.13;;;10.10;99.90;;;;;;5313429;26;20038;-72
2024/04/18 03:43:04;;;;;;;39.50;37.60;;;9.90;99.90;;;;;;5313273;26;20025;-72
2024/04/18 03:45:31;;;;;;;60.50;57.58;;;9.90;99.90;;;;;;5312860;26;20037;-72
2024/04/18 03:47:57;;;;;;;57.30;54.53;;;10.00;99.90;;;;;;5345821;26;20029;-72
2024/04/18 03:50:23;;;;;;;46.15;43.88;;;10.00;99.90;;;;;;5347050;26;20037;-71
2024/04/18 03:52:49;;;;;;;59.72;56.80;;;9.90;99.90;;;;;;5347466;26;20029;-71
2024/04/18 03:55:15;;;;;;;54.83;52.17;;;9.80;99.90;;;;;;5344379;26;20536;-72
2024/04/18 03:57:41;;;;;;;43.92;41.75;;;9.90;99.90;;;;;;5312744;27;20045;-71
2024/04/18 04:00:07;;;;;;;45.38;43.10;;;9.90;99.90;;;;;;5310993;26;20515;-70
2024/04/18 04:02:33;;;;;;;67.43;64.05;;;10.00;99.90;;;;;;5312389;26;20042;-78
2024/04/18 04:05:00;;;;;;;49.55;47.13;;;10.00;99.90;;;;;;5312747;27;20022;-78
2024/04/18 04:07:26;;;;;;;67.13;63.80;;;9.90;99.90;;;;;;5311272;26;20025;-78
2024/04/18 04:09:52;;;;;;;68.00;64.70;;;9.90;99.90;;;;;;5312813;27;20030;-78
2024/04/18 04:12:18;;;;;;;50.42;47.95;;;10.00;99.90;;;;;;5311680;26;20034;-77
2024/04/18 04:14:44;;;;;;;55.67;52.92;;;10.00;99.90;;;;;;5312641;26;20025;-78
2024/04/18 04:17:10;;;;;;;47.28;44.97;;;10.00;99.90;;;;;;5311762;26;20042;-78
2024/04/18 04:19:36;;;;;;;59.63;56.72;;;10.00;99.90;;;;;;5312316;27;20029;-78
2024/04/18 04:22:02;;;;;;;77.28;73.45;;;10.00;99.90;;;;;;5313304;26;20073;-78
2024/04/18 04:24:28;;;;;;;39.47;37.55;;;10.00;99.90;;;;;;5312499;26;20033;-78
2024/04/18 04:26:54;;;;;;;67.03;63.75;;;10.10;99.90;;;;;;5312651;26;20026;-78
2024/04/18 04:29:20;;;;;;;54.78;52.08;;;10.10;99.90;;;;;;5313282;26;20022;-78
2024/04/18 04:31:47;;;;;;;49.08;46.65;;;10.00;99.90;;;;;;5312054;26;20494;-78
2024/04/18 04:34:13;;;;;;;80.47;76.53;;;10.00;99.90;;;;;;5312208;27;20042;-78
2024/04/18 04:36:39;;;;;;;45.90;43.65;;;10.00;99.90;;;;;;5311900;26;20371;-78
2024/04/18 04:39:05;;;;;;;47.75;45.40;;;10.00;99.90;;;;;;5312340;27;20026;-78
2024/04/18 04:41:31;;;;;;;48.40;46.03;;;10.00;99.90;;;;;;5312423;26;20057;-78
2024/04/18 04:43:57;;;;;;;41.70;39.70;;;9.90;99.90;;;;;;5312260;27;20364;-78
2024/04/18 04:46:24;;;;;;;44.83;42.63;;;9.80;99.90;;;;;;5322040;26;20032;-78
2024/04/18 04:48:50;;;;;;;47.47;45.13;;;9.80;99.90;;;;;;5347002;26;20021;-79
2024/04/18 04:51:16;;;;;;;78.32;74.50;;;9.80;99.90;;;;;;5346960;26;20378;-78
2024/04/18 04:53:42;;;;;;;42.55;40.50;;;9.80;99.90;;;;;;5346641;26;20024;-78
2024/04/18 04:56:08;;;;;;;39.72;37.78;;;9.80;99.90;;;;;;5338362;26;20044;-79
2024/04/18 04:58:35;;;;;;;52.63;50.03;;;9.80;99.90;;;;;;5312294;26;20022;-79
2024/04/18 05:01:01;;;;;;;55.38;52.70;;;9.70;99.90;;;;;;5310904;26;20440;-79
2024/04/18 05:03:27;;;;;;;46.38;44.08;;;9.60;99.90;;;;;;5312304;27;20025;-79
2024/04/18 05:05:53;;;;;;;154.20;146.57;;;9.50;99.90;;;;;;5311688;26;20482;-79
2024/04/18 05:08:19;;;;;;;48.33;45.95;;;9.30;99.90;;;;;;5311796;27;20026;-79
2024/04/18 05:10:45;;;;;;;90.13;85.65;;;9.20;99.90;;;;;;5311121;26;20025;-79
2024/04/18 05:13:12;;;;;;;55.55;52.78;;;9.20;99.90;;;;;;5311658;27;20025;-80
2024/04/18 05:15:39;;;;;;;72.88;69.22;;;9.20;99.90;;;;;;5310932;26;20050;-72
2024/04/18 05:18:05;;;;;;;76.07;72.32;;;9.20;99.90;;;;;;5312271;26;20033;-73
2024/04/18 05:20:31;;;;;;;67.15;63.80;;;9.20;99.90;;;;;;5311871;26;20033;-72
2024/04/18 05:22:57;;;;;;;121.32;115.03;;;9.30;99.90;;;;;;5312575;26;20365;-71
2024/04/18 05:25:23;;;;;;;63.75;60.63;;;9.20;99.90;;;;;;5311194;26;20042;-73
2024/04/18 05:28:03;;;;;;;84.03;79.55;;;9.20;99.90;;;;;;5311820;27;20025;-72
2024/04/18 05:33:15;;;;;;;56.88;54.15;;;9.00;99.90;;;;;;5311763;27;20029;-72
2024/04/18 05:35:41;;;;;;;42.63;40.58;;;8.90;99.90;;;;;;5312135;26;20033;-72
2024/04/18 05:38:07;;;;;;;48.28;46.00;;;8.90;99.90;;;;;;5311349;27;20030;-72
2024/04/18 05:40:33;;;;;;;73.18;69.53;;;8.80;99.90;;;;;;5311721;26;20502;-72
2024/04/18 05:42:59;;;;;;;46.75;44.55;;;8.80;99.90;;;;;;5311578;27;20026;-72
2024/04/18 05:45:25;;;;;;;98.47;93.43;;;8.80;99.90;;;;;;5311077;26;20724;-71
2024/04/18 05:47:51;;;;;;;45.33;43.05;;;8.80;99.90;;;;;;5343137;26;20024;-72
2024/04/18 05:50:18;;;;;;;57.33;54.53;;;8.90;99.90;;;;;;5345513;26;20370;-71
2024/04/18 05:52:44;;;;;;;57.58;54.83;;;8.80;99.90;;;;;;5345938;26;20021;-72
2024/04/18 05:55:10;;;;;;;40.58;38.65;;;8.90;99.90;;;;;;5346329;26;20032;-72
2024/04/18 05:57:36;;;;;;;59.35;56.53;;;9.00;99.90;;;;;;5312004;26;20039;-72
2024/04/18 06:00:03;;;;;;;58.10;55.33;;;9.10;99.90;;;;;;5310693;26;20069;-71
2024/04/18 06:02:29;;;;;;;80.25;76.18;;;9.30;99.90;;;;;;5344095;26;20370;-72
2024/04/18 06:04:55;;;;;;;73.72;70.10;;;9.40;99.90;;;;;;5346706;26;20061;-72
2024/04/18 06:07:21;;;;;;;49.63;47.20;;;9.50;99.90;;;;;;5313430;26;20029;-72
2024/04/18 06:09:47;;;;;;;69.55;66.00;;;9.60;99.90;;;;;;5312106;26;20355;-72
2024/04/18 06:12:13;;;;;;;52.20;49.55;;;9.70;99.90;;;;;;5311377;26;20045;-72
2024/04/18 06:14:40;;;;;;;50.90;48.40;;;9.90;99.90;;;;;;5311565;26;20041;-72
2024/04/18 06:17:06;;;;;;;37.78;36.00;;;10.00;99.90;;;;;;5310401;26;20034;-78
2024/04/18 06:19:33;;;;;;;68.45;65.18;;;10.10;99.90;;;;;;5310761;27;20018;-79
2024/04/18 06:21:59;;;;;;;75.13;71.45;;;10.20;99.90;;;;;;5308599;26;20029;-78
2024/04/18 06:24:26;;;;;;;94.25;89.32;;;10.40;99.90;;;;;;5310917;27;20021;-78
2024/04/18 06:26:52;;;;;;;59.03;56.15;;;10.50;99.90;;;;;;5311445;26;20061;-78
2024/04/18 06:29:19;;;;;;;36.40;34.45;;;10.60;99.90;;;;;;5311666;26;20041;-79
2024/04/18 06:31:45;;;;;;;37.88;36.08;;;10.60;99.90;;;;;;5312426;26;20041;-80
2024/04/18 06:34:11;;;;;;;48.78;46.38;;;10.60;99.90;;;;;;5314290;27;20031;-80
2024/04/18 06:36:37;;;;;;;65.80;62.53;;;10.60;99.90;;;;;;5313660;26;20033;-80
2024/04/18 06:39:03;;;;;;;38.10;36.15;;;10.50;99.90;;;;;;5313137;26;20022;-80
2024/04/18 06:41:29;;;;;;;40.80;38.90;;;10.60;99.90;;;;;;5314613;26;20374;-79
2024/04/18 06:43:55;;;;;;;40.08;38.17;;;10.70;99.90;;;;;;5314430;26;20053;-80
2024/04/18 06:46:21;;;;;;;60.83;57.65;;;10.80;99.90;;;;;;5323390;26;20479;-80
2024/04/18 06:48:47;;;;;;;48.55;46.17;;;10.90;99.90;;;;;;5348160;26;20033;-80
2024/04/18 06:51:14;;;;;;;41.33;39.35;;;10.90;99.90;;;;;;5347283;26;20029;-79
2024/04/18 06:53:40;;;;;;;35.92;34.17;;;10.90;99.90;;;;;;5348635;26;20049;-80
2024/04/18 06:56:06;;;;;;;70.45;66.72;;;10.90;99.90;;;;;;5334689;26;20045;-79
2024/04/18 06:58:32;;;;;;;47.25;45.00;;;10.80;99.90;;;;;;5313630;27;20375;-79
2024/04/18 07:00:58;;;;;;;72.03;68.53;;;11.00;99.90;;;;;;5310768;26;20030;-79
2024/04/18 07:03:24;;;;;;;145.90;138.63;;;11.00;99.90;;;;;;5312398;26;20367;-80
2024/04/18 07:05:50;;;;;;;98.53;93.38;;;11.10;99.90;;;;;;5313785;26;20033;-81
2024/04/18 07:08:17;;;;;;;52.65;49.90;;;11.10;99.90;;;;;;5311393;27;20468;-80
2024/04/18 07:10:43;;;;;;;74.15;70.13;;;11.10;99.90;;;;;;5311316;26;20033;-80
2024/04/18 07:13:09;;;;;;;42.67;40.58;;;11.10;99.90;;;;;;5311171;27;20033;-80
2024/04/18 07:15:35;;;;;;;52.53;49.90;;;11.20;99.90;;;;;;5312415;26;20033;-80
2024/04/18 07:18:01;;;;;;;95.85;91.15;;;11.30;99.90;;;;;;5314249;26;20034;-81
2024/04/18 07:20:28;;;;;;;74.18;70.57;;;11.40;99.90;;;;;;5312391;26;20046;-80
2024/04/18 07:22:54;;;;;;;48.70;45.65;;;11.40;99.90;;;;;;5311747;27;20026;-80
2024/04/18 07:25:20;;;;;;;65.00;61.58;;;11.50;99.90;;;;;;5312788;26;20033;-81
2024/04/18 07:27:46;;;;;;;82.95;78.85;;;11.60;99.90;;;;;;5311095;27;20025;-80
2024/04/18 07:30:12;;;;;;;91.78;87.38;;;11.70;99.90;;;;;;5312194;26;20026;-80
2024/04/18 07:32:38;;;;;;;59.33;56.30;;;11.90;99.90;;;;;;5314014;26;20022;-79
2024/04/18 07:35:05;;;;;;;1999.90;999.90;;;12.00;99.90;;;;;;5313750;26;20024;-80
2024/04/18 07:37:31;;;;;;;1999.90;999.90;;;12.20;99.90;;;;;;5312734;26;20033;-80
2024/04/18 07:40:00;;;;;;;1999.90;999.90;;;12.10;99.90;;;;;;5312949;27;20022;-80
2024/04/18 07:42:26;;;;;;;1999.90;999.90;;;12.10;99.90;;;;;;5311263;26;20030;-80
2024/04/18 07:44:52;;;;;;;1999.90;999.90;;;12.20;99.90;;;;;;5313369;27;20025;-81
2024/04/18 07:47:18;;;;;;;1999.90;999.90;;;12.20;99.90;;;;;;5335413;26;20380;-82
2024/04/18 07:49:44;;;;;;;1999.90;999.90;;;12.30;99.90;;;;;;5346972;26;20033;-72
2024/04/18 07:52:10;;;;;;;1999.90;999.90;;;12.20;99.90;;;;;;5346894;26;20029;-72
2024/04/18 07:54:36;;;;;;;1999.90;999.90;;;12.20;99.90;;;;;;5346007;26;20020;-72
2024/04/18 07:57:03;;;;;;;1999.90;999.90;;;12.50;99.90;;;;;;5320438;26;20049;-71
2024/04/18 07:59:29;;;;;;;1999.90;999.90;;;12.50;99.90;;;;;;5312977;26;20025;-72
2024/04/18 08:01:55;;;;;;;1999.90;999.90;;;12.70;99.90;;;;;;5312369;26;20418;-72
2024/04/18 08:04:21;;;;;;;1999.90;999.90;;;12.70;99.90;;;;;;5312436;27;20026;-72
2024/04/18 08:06:47;;;;;;;1999.90;999.90;;;12.70;99.90;;;;;;5313160;26;20041;-72
2024/04/18 08:09:13;;;;;;;1999.90;999.90;;;12.60;99.90;;;;;;5313103;26;20427;-72
2024/04/18 08:11:39;;;;;;;1999.90;999.90;;;12.70;99.90;;;;;;5313074;26;20029;-71
2024/04/18 08:14:05;;;;;;;1999.90;999.90;;;12.70;99.90;;;;;;5313404;26;20021;-72
2024/04/18 08:16:32;;;;;;;1999.90;999.90;;;12.70;99.90;;;;;;5312690;26;20041;-72
2024/04/18 08:18:58;;;;;;;1999.90;999.90;;;12.80;99.90;;;;;;5312219;27;20022;-71
2024/04/18 08:21:24;;;;;;;1999.90;999.90;;;12.70;99.90;;;;;;5312989;26;20038;-72
2024/04/18 08:23:52;;;;;;;1999.90;999.90;;;12.40;99.90;;;;;;5312838;27;20029;-72
2024/04/18 08:26:18;;;;;;;1999.90;999.90;;;12.40;99.90;;;;;;5312863;26;20033;-71
2024/04/18 08:28:44;;;;;;;1999.90;999.90;;;12.40;99.90;;;;;;5312959;26;20025;-72
2024/04/18 08:31:10;;;;;;;1999.90;999.90;;;12.50;99.90;;;;;;5311708;26;20049;-72
2024/04/18 08:33:36;;;;;;;1999.90;999.90;;;12.50;99.90;;;;;;5312731;26;20025;-72
2024/04/18 08:36:02;;;;;;;1999.90;999.90;;;12.70;99.90;;;;;;5312586;26;20033;-72
2024/04/18 08:38:47;;;;;;;1999.90;999.90;;;12.80;99.90;;;;;;5313410;26;20033;-72
2024/04/18 08:41:27;;;;;;;1999.90;999.90;;;13.00;99.90;;;;;;5326213;26;20038;-72
2024/04/18 08:43:53;;;;;;;1999.90;999.90;;;13.20;99.90;;;;;;5345564;26;20032;-71
2024/04/18 08:46:19;;;;;;;1999.90;999.90;;;13.40;99.90;;;;;;5338782;26;20723;-72
2024/04/18 08:48:45;;;;;;;1999.90;999.90;;;13.60;99.90;;;;;;5345253;26;20025;-72
2024/04/18 08:51:11;;;;;;;1999.90;999.90;;;13.70;99.90;;;;;;5315889;26;20044;-71
2024/04/18 08:53:38;;;;;;;1999.90;999.90;;;13.60;99.90;;;;;;5343745;26;20037;-71
2024/04/18 08:56:04;;;;;;;1999.90;999.90;;;13.40;99.90;;;;;;5346684;26;20380;-72
2024/04/18 08:58:31;;;;;;;1999.90;999.90;;;13.30;99.90;;;;;;5345270;26;20416;-72
2024/04/18 09:00:57;;;;;;;1999.90;999.90;;;13.20;99.90;;;;;;5314621;26;20033;-71
2024/04/18 09:03:24;;;;;;;1999.90;999.90;;;13.40;99.90;;;;;;5344425;26;20041;-80
2024/04/18 09:05:50;;;;;;;1999.90;999.90;;;13.50;99.90;;;;;;5343973;26;20028;-80
2024/04/18 09:08:16;;;;;;;1999.90;999.90;;;13.20;99.90;;;;;;5346135;26;20443;-80
2024/04/18 09:10:42;;;;;;;1999.90;999.90;;;13.30;99.90;;;;;;5338135;26;20046;-83
2024/04/18 09:13:09;;;;;;;1999.90;999.90;;;13.20;99.90;;;;;;5310186;27;20046;-80
2024/04/18 09:15:35;;;;;;;1999.90;999.90;;;13.00;99.90;;;;;;5311593;26;20046;-80
2024/04/18 09:18:05;;;;;;;1999.90;999.90;;;13.50;99.90;;;;;;5312439;26;20037;-81
2024/04/18 09:20:33;;;;;;;1999.90;999.90;;;13.70;99.90;;;;;;5309775;26;20065;-82
2024/04/18 09:22:59;;;;;;;1999.90;999.90;;;13.50;99.90;;;;;;5312974;26;20029;-80
2024/04/18 09:25:25;;;;;;;1999.90;999.90;;;13.30;99.90;;;;;;5312536;26;20034;-80
2024/04/18 09:27:51;;;;;;;1999.90;999.90;;;13.00;99.90;;;;;;5311353;27;20491;-79
2024/04/18 09:30:17;;;;;;;1999.90;999.90;;;13.00;99.90;;;;;;5311147;26;20022;-79
2024/04/18 09:32:44;;;;;;;1999.90;999.90;;;13.00;99.90;;;;;;5311369;26;20021;-80
2024/04/18 09:35:10;;;;;;;1999.90;999.90;;;12.90;99.90;;;;;;5311322;26;20030;-81
2024/04/18 09:37:38;;;;;;;1999.90;999.90;;;12.80;99.90;;;;;;5311613;27;20025;-80
2024/04/18 09:40:05;;;;;;;1999.90;999.90;;;12.50;99.90;;;;;;5311192;26;20026;-80
2024/04/18 09:42:50;;;;;;;1999.90;999.90;;;12.50;99.90;;;;;;5342291;26;20044;-80
2024/04/18 09:45:17;;;;;;;1999.90;999.90;;;12.60;99.90;;;;;;5343620;26;20028;-80
2024/04/18 09:47:44;;;;;;;1999.90;999.90;;;12.50;99.90;;;;;;5340817;26;20036;-80
2024/04/18 09:50:12;;;;;;;1999.90;999.90;;;12.40;99.90;;;;;;5343349;26;20044;-80
2024/04/18 09:52:38;;;;;;;1999.90;999.90;;;12.40;99.90;;;;;;5309357;27;20025;-80
2024/04/18 09:55:05;;;;;;;1999.90;999.90;;;12.50;99.90;;;;;;5311366;27;20021;-80
2024/04/18 09:57:31;;;;;;;1999.90;999.90;;;12.60;99.90;;;;;;5309469;26;20046;-82
2024/04/18 09:59:57;;;;;;;1999.90;999.90;;;12.80;99.90;;;;;;5281418;27;20025;-81
2024/04/18 10:02:23;;;;;;;1999.90;999.90;;;12.80;99.90;;;;;;5308506;26;20033;-80
2024/04/18 10:04:50;;;;;;;1999.90;999.90;;;12.60;99.90;;;;;;5280642;27;20037;-80
2024/04/18 10:07:16;;;;;;;1999.90;999.90;;;12.50;99.90;;;;;;5308310;26;20033;-82
2024/04/18 10:09:43;;;;;;;1999.90;999.90;;;12.70;99.90;;;;;;5280941;27;20029;-82
2024/04/18 10:12:09;;;;;;;1999.90;999.90;;;12.80;99.90;;;;;;5280967;27;20029;-72
2024/04/18 10:14:36;;;;;;;1999.90;999.90;;;13.00;99.90;;;;;;5311414;26;20363;-73
2024/04/18 10:17:04;;;;;;;1999.90;999.90;;;13.30;99.90;;;;;;5310381;26;20042;-71
2024/04/18 10:19:31;;;;;;;1999.90;999.90;;;13.60;99.90;;;;;;5309045;27;20026;-72
2024/04/18 10:22:00;;;;;;;1999.90;999.90;;;14.00;99.90;;;;;;5311297;26;20455;-72
2024/04/18 10:24:35;;;;;;;1999.90;999.90;;;13.90;99.90;;;;;;5311147;27;20026;-72
2024/04/18 10:27:06;;;;;;;1999.90;999.90;;;14.20;99.90;;;;;;5309034;26;20025;-71
2024/04/18 10:29:33;;;;;;;;;;;14.50;99.90;;;;;;5309642;27;20042;-72
2024/04/18 10:31:59;;;;;;;1999.90;999.90;;;14.10;99.90;;;;;;5311285;26;20300;-72
2024/04/18 10:34:28;;;;;;;1999.90;999.90;;;14.30;99.90;;;;;;5311445;26;20377;-71
2024/04/18 10:36:56;;;;;;;1999.90;999.90;;;14.30;99.90;;;;;;5309016;26;20033;-72
2024/04/18 10:39:35;;;;;;;1999.90;999.90;;;14.30;99.90;;;;;;5310710;26;20784;-72
2024/04/18 10:42:01;;;;;;;1999.90;999.90;;;14.20;99.90;;;;;;5310347;26;20105;-71
2024/04/18 10:44:28;;;;;;;1999.90;999.90;;;14.00;99.90;;;;;;5311106;26;20375;-72
2024/04/18 10:46:57;;;;;;;1999.90;999.90;;;13.80;99.90;;;;;;5326065;26;20029;-72
2024/04/18 10:49:23;;;;;;;1999.90;999.90;;;13.40;99.90;;;;;;5344846;26;20025;-72
2024/04/18 10:51:52;;;;;;;1999.90;999.90;;;13.40;99.90;;;;;;5344169;26;20036;-72
2024/04/18 10:54:19;;;;;;;1999.90;999.90;;;13.50;99.90;;;;;;5343379;26;20021;-71
2024/04/18 10:56:45;;;;;;;1999.90;999.90;;;13.50;99.90;;;;;;5321883;26;20474;-72
2024/04/18 10:59:11;;;;;;;1999.90;999.90;;;13.60;99.90;;;;;;5309290;26;20021;-72
2024/04/18 11:01:38;;;;;;;1999.90;999.90;;;13.80;99.90;;;;;;5309763;26;20041;-71
2024/04/18 11:04:05;;;;;;;1999.90;999.90;;;13.70;99.90;;;;;;5310923;26;20034;-72
2024/04/18 11:06:31;;;;;;;1999.90;999.90;;;13.90;99.90;;;;;;5310474;26;20041;-72
2024/04/18 11:09:00;;;;;;;1999.90;999.90;;;14.10;99.90;;;;;;5308689;27;20029;-72
2024/04/18 11:11:27;;;;;;;1999.90;999.90;;;14.00;99.90;;;;;;5310000;26;20025;-72
2024/04/18 11:13:54;;;;;;;1999.90;999.90;;;14.10;99.90;;;;;;5310492;26;20038;-81
2024/04/18 11:16:21;;;;;;;1999.90;999.90;;;14.00;99.90;;;;;;5307681;26;20034;-81
2024/04/18 11:18:47;;;;;;;1999.90;999.90;;;13.90;99.90;;;;;;5283560;27;20029;-81
2024/04/18 11:21:14;;;;;;;1999.90;999.90;;;13.80;99.90;;;;;;5311055;26;20038;-80
2024/04/18 11:23:40;;;;;;;1999.90;999.90;;;13.90;99.90;;;;;;5311755;27;20026;-81
2024/04/18 11:26:06;;;;;;;1999.90;999.90;;;14.00;99.90;;;;;;5313413;26;20029;-81
2024/04/18 11:28:33;;;;;;;1999.90;999.90;;;14.10;99.90;;;;;;5311254;27;20038;-80
2024/04/18 11:30:59;;;;;;;1999.90;999.90;;;14.20;99.90;;;;;;5312312;26;20033;-82
2024/04/18 11:33:25;;;;;;;1999.90;999.90;;;14.00;99.90;;;;;;5313115;27;20033;-81
2024/04/18 11:35:52;;;;;;;1999.90;999.90;;;13.80;99.90;;;;;;5311201;26;20034;-82
2024/04/18 11:38:18;;;;;;;1999.90;999.90;;;13.90;99.90;;;;;;5312146;26;20021;-80
2024/04/18 11:40:44;;;;;;;1999.90;999.90;;;14.00;99.90;;;;;;5313721;26;20033;-81
2024/04/18 11:43:10;;;;;;;1999.90;999.90;;;14.20;99.90;;;;;;5313048;27;20034;-81
2024/04/18 11:45:36;;;;;;;1999.90;999.90;;;14.30;99.90;;;;;;5312331;26;20530;-81
2024/04/18 11:48:04;;;;;;;1999.90;999.90;;;14.50;99.90;;;;;;5347039;26;20036;-80
2024/04/18 11:50:30;;;;;;;1999.90;999.90;;;14.70;99.90;;;;;;5344975;26;20033;-80
2024/04/18 11:52:56;;;;;;;1999.90;999.90;;;14.60;99.90;;;;;;5347782;26;20025;-80
2024/04/18 11:55:22;;;;;;;1999.90;999.90;;;14.70;99.90;;;;;;5343899;26;20032;-81
2024/04/18 11:57:49;;;;;;;1999.90;999.90;;;14.60;99.90;;;;;;5312804;27;20109;-79
2024/04/18 12:00:15;;;;;;;1999.90;999.90;;;14.80;99.90;;;;;;5311906;26;20025;-79
2024/04/18 12:02:41;;;;;;;1999.90;999.90;;;14.90;99.90;;;;;;5312639;26;20025;-82
2024/04/18 12:05:08;;;;;;;1999.90;999.90;;;14.70;99.90;;;;;;5311157;27;20025;-80
2024/04/18 12:07:34;;;;;;;1999.90;999.90;;;14.80;99.90;;;;;;5312550;26;20033;-80
2024/04/18 12:10:00;;;;;;;1999.90;999.90;;;15.00;99.90;;;;;;5312093;27;20037;-79